Waterville, Vermont
Current Conditions -  °F | °C
As of 9:54 AM on Thursday 30 Oct 2014 (Local Time) from KMVL Reporting Station
Overcast Overcast  
Wind Chill: 44°   Ceiling: 3300
Heat Index: 44°   Visibility: 10mi
Dew Point: 38°   Wind: 0mph
Humidity: 79%   Direction: NA
Pressure: 29.96"   Gusts: NA
Location:  44.69°N, 72.77°W
Report Text: KMVL 301354Z AUTO 00000KT 10SM OVC033 07/03 A2996 RMK AO2 RAE01 SLP151 P0000 T00670033
Loading
Personal Weather Stations






























Interactive Weather Map
Tropical Storm Tracking
New forecast layout! Learn more

10-Day Weather Forecast

Advertisements
Track Severe Weather on mobile